createdAt,value
2018-04-08T00:01:40.686Z,4.50
2018-04-08T00:04:10.474Z,4.10
2018-04-08T00:06:40.775Z,4.00
2018-04-08T00:09:11.315Z,4.90
2018-04-08T00:11:41.395Z,4.90
2018-04-08T00:14:11.515Z,4.70
2018-04-08T00:16:41.802Z,4.90
2018-04-08T00:19:11.941Z,5.00
2018-04-08T00:21:42.037Z,5.70
2018-04-08T00:24:11.960Z,5.70
2018-04-08T00:26:42.083Z,5.90
2018-04-08T00:29:12.171Z,6.60
2018-04-08T00:31:42.396Z,7.10
2018-04-08T00:34:12.593Z,6.90
2018-04-08T00:36:43.460Z,7.50
2018-04-08T00:39:13.304Z,7.50
2018-04-08T00:41:43.496Z,6.90
2018-04-08T00:44:13.612Z,7.60
2018-04-08T00:46:43.411Z,7.10
2018-04-08T00:49:14.090Z,7.30
2018-04-08T00:51:44.353Z,7.30
2018-04-08T00:54:30.145Z,7.10
2018-04-08T00:57:00.369Z,7.30
2018-04-08T00:59:30.513Z,7.40
2018-04-08T01:02:00.476Z,6.90
2018-04-08T01:04:31.444Z,8.70
2018-04-08T01:07:00.946Z,8.70
2018-04-08T01:09:31.212Z,9.00
2018-04-08T01:12:02.110Z,9.60
2018-04-08T01:14:31.988Z,9.60
2018-04-08T01:17:01.885Z,9.00
2018-04-08T01:19:31.977Z,10.20
2018-04-08T01:22:02.310Z,10.50
2018-04-08T01:24:32.464Z,9.20
2018-04-08T01:27:02.591Z,9.40
2018-04-08T01:29:32.745Z,10.40
2018-04-08T01:32:03.981Z,9.90
2018-04-08T01:34:34.206Z,10.50
2018-04-08T01:37:04.534Z,11.60
2018-04-08T01:39:34.622Z,11.50
2018-04-08T01:42:04.771Z,12.30
2018-04-08T01:44:34.991Z,12.40
2018-04-08T01:47:05.164Z,13.20
2018-04-08T01:49:35.588Z,13.10
2018-04-08T01:52:06.528Z,12.50
2018-04-08T01:54:36.662Z,12.50
2018-04-08T01:57:06.725Z,12.70
2018-04-08T01:59:36.881Z,12.50
2018-04-08T02:02:07.812Z,12.00
2018-04-08T02:04:37.793Z,12.00
2018-04-08T02:07:08.010Z,12.70
2018-04-08T02:09:38.242Z,12.50
2018-04-08T02:12:08.422Z,12.30
2018-04-08T02:14:39.359Z,11.20
2018-04-08T02:17:09.670Z,11.30
2018-04-08T02:19:39.862Z,12.20
2018-04-08T02:22:10.073Z,10.90
2018-04-08T02:24:40.268Z,10.50
2018-04-08T02:27:10.577Z,9.60
2018-04-08T02:29:41.074Z,9.50
2018-04-08T02:32:12.189Z,8.40
2018-04-08T02:34:42.500Z,8.30
2018-04-08T02:37:12.619Z,6.80
2018-04-08T02:39:43.044Z,7.10
2018-04-08T02:42:13.317Z,7.50
2018-04-08T02:44:43.490Z,8.40
2018-04-08T02:47:13.675Z,7.20
2018-04-08T02:49:43.894Z,8.40
2018-04-08T02:52:13.801Z,8.90
2018-04-08T02:54:43.754Z,7.80
2018-04-08T02:57:13.913Z,6.90
2018-04-08T02:59:44.054Z,7.10
2018-04-08T03:02:14.225Z,9.10
2018-04-08T03:04:44.385Z,9.40
2018-04-08T03:07:14.530Z,8.40
2018-04-08T03:09:44.676Z,9.20
2018-04-08T03:12:14.991Z,7.40
2018-04-08T03:14:45.574Z,7.80
2018-04-08T03:17:15.878Z,7.20
2018-04-08T03:19:46.765Z,5.80
2018-04-08T03:22:16.963Z,5.70
2018-04-08T03:24:47.088Z,6.40
2018-04-08T03:27:17.227Z,6.10
2018-04-08T03:29:47.333Z,6.30
2018-04-08T03:32:18.444Z,8.00
2018-04-08T03:34:48.833Z,8.00
2018-04-08T03:37:19.014Z,8.40
2018-04-08T03:39:49.120Z,8.80
2018-04-08T03:42:19.213Z,8.40
2018-04-08T03:44:49.308Z,8.70
2018-04-08T03:47:19.618Z,9.20
2018-04-08T03:49:49.766Z,9.50
2018-04-08T03:52:19.923Z,9.20
2018-04-08T03:54:49.853Z,9.40
2018-04-08T03:57:19.762Z,8.80
2018-04-08T03:59:49.650Z,8.50
2018-04-08T04:02:19.623Z,8.60
2018-04-08T04:04:49.507Z,8.80
2018-04-08T04:07:19.455Z,8.60
2018-04-08T04:09:49.818Z,8.50
2018-04-08T04:12:19.701Z,8.20
2018-04-08T04:14:49.906Z,7.60
2018-04-08T04:17:19.998Z,7.60
2018-04-08T04:20:06.897Z,7.30
2018-04-08T04:22:53.591Z,7.10
2018-04-08T04:28:39.324Z,5.60
2018-04-08T04:31:28.037Z,5.80
2018-04-08T04:34:15.969Z,6.20
2018-04-08T04:43:15.766Z,6.90
2018-04-08T04:45:46.062Z,7.30
2018-04-08T04:57:43.077Z,7.80
2018-04-08T05:06:51.963Z,7.40
2018-04-08T05:12:39.162Z,8.00
2018-04-08T05:18:34.874Z,7.50
2018-04-08T05:21:16.882Z,7.40
2018-04-08T05:24:00.306Z,6.90
2018-04-08T05:26:41.953Z,7.10
2018-04-08T05:29:19.405Z,7.40
2018-04-08T05:35:02.761Z,5.60
2018-04-08T06:57:08.965Z,1.00
2018-04-08T06:59:39.404Z,1.00
2018-04-08T07:02:10.048Z,1.00
2018-04-08T07:04:40.937Z,1.00
2018-04-08T07:07:11.601Z,1.00
2018-04-08T07:09:42.006Z,1.00
2018-04-08T07:12:13.228Z,1.00
2018-04-08T07:14:43.645Z,1.00
2018-04-08T07:17:15.038Z,1.00
2018-04-08T07:19:45.701Z,1.00
2018-04-08T07:22:16.160Z,1.00
2018-04-08T07:24:47.443Z,1.00
2018-04-08T07:27:18.916Z,1.00
2018-04-08T07:29:49.301Z,1.00
2018-04-08T07:32:20.736Z,1.00
2018-04-08T07:34:51.388Z,1.00
2018-04-08T07:37:22.065Z,1.00
2018-04-08T07:39:52.716Z,1.00
2018-04-08T07:42:23.580Z,1.00
2018-04-08T07:44:54.467Z,1.00
2018-04-08T07:47:25.194Z,1.00
2018-04-08T07:49:56.650Z,1.00
2018-04-08T07:52:27.494Z,1.00
2018-04-08T07:54:59.125Z,1.00
2018-04-08T07:57:29.755Z,1.00
2018-04-08T08:00:01.063Z,1.00
2018-04-08T08:02:31.742Z,1.00
2018-04-08T08:05:02.099Z,1.00
2018-04-08T08:07:33.253Z,1.00
2018-04-08T08:10:04.387Z,1.00
2018-04-08T08:12:34.740Z,1.00
2018-04-08T08:15:04.788Z,1.00
2018-04-08T08:17:35.392Z,1.00
2018-04-08T08:20:05.529Z,1.00
2018-04-08T08:22:36.469Z,1.00
2018-04-08T08:25:06.814Z,1.00
2018-04-08T08:27:37.155Z,1.00
2018-04-08T08:30:07.808Z,1.00
2018-04-08T08:32:38.469Z,1.00
2018-04-08T08:35:09.332Z,1.00
2018-04-08T08:37:39.925Z,1.00
2018-04-08T08:40:11.283Z,1.00
2018-04-08T08:42:42.060Z,1.00
2018-04-08T08:45:12.964Z,1.00
2018-04-08T08:47:43.656Z,1.00
2018-04-08T08:50:14.442Z,1.00
2018-04-08T08:52:45.334Z,1.00
2018-04-08T08:55:16.173Z,1.00
2018-04-08T08:57:46.818Z,1.00
2018-04-08T09:00:17.201Z,1.00
2018-04-08T09:02:47.961Z,1.00
2018-04-08T09:05:18.632Z,1.00
2018-04-08T09:07:49.268Z,1.00
2018-04-08T09:10:19.820Z,1.00
2018-04-08T09:12:50.174Z,1.00
2018-04-08T09:15:20.596Z,1.00
2018-04-08T09:17:51.226Z,1.00
2018-04-08T09:20:25.681Z,1.00
2018-04-08T09:22:56.299Z,1.00
2018-04-08T09:25:37.588Z,1.00
2018-04-08T09:28:08.864Z,1.00
2018-04-08T09:30:39.674Z,1.00
2018-04-08T09:33:10.266Z,1.00
2018-04-08T09:35:41.690Z,1.00
2018-04-08T09:38:12.358Z,1.00
2018-04-08T09:40:43.097Z,1.00
2018-04-08T09:43:13.762Z,1.00
2018-04-08T09:45:44.638Z,1.00
2018-04-08T09:48:15.859Z,1.00
2018-04-08T09:50:47.407Z,1.00
2018-04-08T09:53:18.096Z,1.00
2018-04-08T09:55:48.623Z,1.00
2018-04-08T09:58:21.876Z,1.00
2018-04-08T10:03:53.843Z,1.00
2018-04-08T10:06:24.493Z,1.00
2018-04-08T10:08:55.329Z,1.00
2018-04-08T10:11:26.289Z,1.00
2018-04-08T10:13:56.951Z,1.00
2018-04-08T10:16:27.322Z,1.00
2018-04-08T10:18:57.650Z,1.00
2018-04-08T10:21:28.613Z,1.00
2018-04-08T10:23:59.071Z,1.00
2018-04-08T10:26:29.731Z,1.00
2018-04-08T10:29:00.210Z,1.00
2018-04-08T10:31:30.513Z,1.00
2018-04-08T10:34:00.881Z,1.00
2018-04-08T10:36:31.003Z,1.00
2018-04-08T10:39:01.528Z,1.00
2018-04-08T10:41:32.077Z,1.00
2018-04-08T10:44:02.471Z,1.00
2018-04-08T10:46:33.581Z,1.00
2018-04-08T10:49:04.243Z,1.00
2018-04-08T10:51:34.426Z,1.00
2018-04-08T10:54:05.038Z,1.00
2018-04-08T10:56:35.395Z,1.00
2018-04-08T10:59:05.802Z,1.00
2018-04-08T11:01:36.463Z,1.00
2018-04-08T11:04:07.629Z,1.00
2018-04-08T11:06:38.797Z,1.00
2018-04-08T11:09:09.731Z,1.00
2018-04-08T11:11:41.108Z,1.00
2018-04-08T11:14:11.635Z,1.00
2018-04-08T11:16:42.696Z,1.00
2018-04-08T11:19:13.309Z,1.00
2018-04-08T11:21:44.437Z,1.00
2018-04-08T11:24:14.835Z,1.00
2018-04-08T11:26:45.954Z,1.00
2018-04-08T11:29:16.418Z,1.00
2018-04-08T11:31:47.539Z,1.00
2018-04-08T11:34:18.562Z,1.00
2018-04-08T11:36:50.345Z,1.00
2018-04-08T11:39:21.766Z,1.00
2018-04-08T11:41:53.412Z,1.00
2018-04-08T11:44:24.101Z,1.00
2018-04-08T11:46:55.942Z,1.00
2018-04-08T11:49:27.280Z,1.00
2018-04-08T11:51:57.963Z,1.00
2018-04-08T11:54:29.499Z,1.00
2018-04-08T11:56:59.666Z,1.00
2018-04-08T11:59:30.372Z,1.00
2018-04-08T12:02:02.059Z,1.00
2018-04-08T12:04:32.713Z,1.00
2018-04-08T12:07:03.661Z,1.00
2018-04-08T12:09:34.383Z,1.00
2018-04-08T12:12:05.078Z,1.00
2018-04-08T12:14:35.835Z,1.00
2018-04-08T12:17:06.510Z,1.00
2018-04-08T12:19:36.942Z,1.00
2018-04-08T12:22:07.112Z,1.00
2018-04-08T12:24:37.884Z,1.00
2018-04-08T12:27:16.199Z,1.00
2018-04-08T12:29:48.693Z,1.00
2018-04-08T12:32:22.343Z,1.00
2018-04-08T12:34:52.702Z,1.00
2018-04-08T12:37:24.447Z,1.00
2018-04-08T12:39:55.467Z,1.00
2018-04-08T12:42:26.191Z,1.00
2018-04-08T13:01:58.380Z,1.00
2018-04-08T13:04:29.598Z,1.00
2018-04-08T13:07:16.652Z,1.00
2018-04-08T18:21:14.667Z,7.80
2018-04-08T18:23:44.801Z,8.10
2018-04-08T18:26:31.095Z,8.60
2018-04-08T18:29:17.599Z,8.50
2018-04-08T18:38:21.464Z,8.50
2018-04-08T18:41:11.378Z,8.10
2018-04-08T18:50:14.889Z,8.00
2018-04-08T18:53:09.530Z,7.60
2018-04-08T18:56:04.508Z,7.40
2018-04-08T18:58:53.762Z,7.00
2018-04-08T19:01:43.266Z,7.10
2018-04-08T19:07:31.656Z,8.40
2018-04-08T19:10:14.007Z,8.30
2018-04-08T19:22:43.985Z,6.90
2018-04-08T19:25:29.842Z,6.70
2018-04-08T19:28:19.105Z,7.00
2018-04-08T19:34:13.831Z,7.10
2018-04-08T19:43:08.277Z,6.40
2018-04-08T19:46:01.290Z,6.70
2018-04-08T19:48:50.530Z,5.50
2018-04-08T19:51:37.471Z,5.30
2018-04-08T19:54:06.946Z,5.20
2018-04-08T19:57:01.642Z,5.40
2018-04-08T19:59:56.200Z,5.70
2018-04-08T20:05:47.959Z,6.30
2018-04-08T20:08:30.989Z,6.20
2018-04-08T20:11:15.325Z,6.70
2018-04-08T20:14:05.781Z,7.00
2018-04-08T20:16:35.910Z,7.50
2018-04-08T20:19:21.273Z,8.10
2018-04-08T20:22:16.448Z,7.60
2018-04-08T20:25:00.288Z,7.30
2018-04-08T20:30:58.351Z,6.10
2018-04-08T20:40:13.611Z,4.90
2018-04-08T20:43:02.124Z,4.50
2018-04-08T20:48:38.225Z,5.00
2018-04-08T20:54:12.290Z,6.40
2018-04-08T20:56:54.708Z,5.70
2018-04-08T20:59:38.460Z,5.60
2018-04-08T21:02:27.632Z,6.00
2018-04-08T21:11:12.135Z,6.10
2018-04-08T21:14:07.091Z,6.80
2018-04-08T21:16:53.685Z,7.40
2018-04-08T21:19:41.829Z,7.80
2018-04-08T21:25:19.366Z,8.10
2018-04-08T21:27:49.464Z,7.60
2018-04-08T21:33:50.686Z,7.70
2018-04-08T21:36:39.716Z,8.40
2018-04-08T21:39:21.584Z,6.40
2018-04-08T21:48:22.106Z,6.00
2018-04-08T21:51:21.131Z,6.00
2018-04-08T22:00:13.002Z,6.90
2018-04-08T22:02:55.790Z,7.30
2018-04-08T22:05:44.801Z,7.90
2018-04-08T22:08:15.172Z,8.10
2018-04-08T22:10:56.828Z,8.60
2018-04-08T22:17:01.565Z,10.30
2018-04-08T22:19:31.734Z,10.90
2018-04-08T22:22:01.856Z,10.40
2018-04-08T22:24:31.983Z,10.60
2018-04-08T22:33:43.108Z,12.60
2018-04-08T22:36:13.277Z,13.00
2018-04-08T22:38:55.091Z,12.90
2018-04-08T22:41:41.119Z,13.30
2018-04-08T22:44:24.584Z,12.50
2018-04-08T22:46:54.723Z,11.60
2018-04-08T22:49:43.418Z,10.40
2018-04-08T22:52:38.154Z,9.30
2018-04-08T22:55:33.732Z,8.80
2018-04-08T22:58:03.930Z,8.60
2018-04-08T23:04:02.512Z,8.40
2018-04-08T23:12:44.977Z,7.30
2018-04-08T23:15:30.654Z,7.30
2018-04-08T23:18:19.451Z,7.20
2018-04-08T23:24:09.279Z,7.10
2018-04-08T23:30:14.687Z,7.30
2018-04-08T23:32:44.944Z,8.20
2018-04-08T23:38:48.128Z,7.60
2018-04-08T23:41:37.102Z,7.40
2018-04-08T23:44:07.107Z,7.00
2018-04-08T23:49:46.987Z,6.80
2018-04-08T23:58:48.986Z,7.40
